Time;durP1;ratioP1;P1;durP2;ratioP2;P2;SDS_P1;SDS_P2;PMS_P1;PMS_P2;Temp;Humidity;BMP_temperature;BMP_pressure;BME280_temperature;BME280_humidity;BME280_pressure;Samples;Min_cycle;Max_cycle;Signal;HPM_P1;HPM_P2
2022/03/12 00:00:56;;;;;;;;;0.00;0.00;;;;;10.46;73.67;100348.81;5054850;28;45405;-69
2022/03/12 00:03:22;;;;;;;;;0.00;0.00;;;;;10.26;74.78;100329.97;5053362;28;45370;-69
2022/03/12 00:05:53;;;;;;;;;0.00;0.00;;;;;10.27;73.89;100342.19;5055786;28;45266;-70
2022/03/12 00:08:22;;;;;;;;;0.00;0.00;;;;;10.13;74.21;100333.09;5055138;28;45484;-69
2022/03/12 00:10:50;;;;;;;;;0.00;0.00;;;;;10.13;74.85;100344.41;5055166;28;45426;-70
2022/03/12 00:13:19;;;;;;;;;0.00;0.00;;;;;10.14;75.19;100343.56;5055006;28;45472;-69
2022/03/12 00:15:45;;;;;;;;;0.00;0.00;;;;;10.12;75.09;100345.25;5056116;28;45303;-69
2022/03/12 00:18:14;;;;;;;;;0.00;0.00;;;;;10.05;75.10;100330.28;5054861;28;45390;-69
2022/03/12 00:20:40;;;;;;;;;1.00;0.00;;;;;10.09;75.15;100336.47;5054803;28;45556;-70
2022/03/12 00:23:11;;;;;;;;;0.00;0.00;;;;;10.16;75.50;100356.66;5055106;28;45553;-71
2022/03/12 00:25:38;;;;;;;;;0.00;0.00;;;;;10.11;75.14;100351.31;5054055;28;45525;-69
2022/03/12 00:28:07;;;;;;;;;0.00;0.00;;;;;10.11;75.19;100342.63;5054778;28;46068;-69
2022/03/12 00:30:35;;;;;;;;;0.00;0.00;;;;;10.18;75.20;100341.94;5055220;28;45520;-69
2022/03/12 00:33:01;;;;;;;;;0.00;0.00;;;;;10.22;75.41;100343.78;5055038;28;45433;-70
2022/03/12 00:35:27;;;;;;;;;0.00;0.00;;;;;10.10;75.28;100322.56;5055370;28;45310;-69
2022/03/12 00:37:52;;;;;;;;;0.00;0.00;;;;;10.22;74.86;100346.38;5054466;28;45878;-69
2022/03/12 00:40:20;;;;;;;;;0.00;0.00;;;;;10.21;74.32;100342.03;5054849;28;45513;-69
2022/03/12 00:42:46;;;;;;;;;1.33;0.00;;;;;10.18;74.86;100335.81;5054869;28;45559;-69
2022/03/12 00:45:13;;;;;;;;;0.00;0.00;;;;;10.18;74.34;100335.81;5054933;28;45601;-69
2022/03/12 00:47:38;;;;;;;;;0.00;0.00;;;;;10.13;74.83;100323.53;5052155;28;46391;-69
2022/03/12 00:50:05;;;;;;;;;0.00;0.00;;;;;10.11;75.31;100317.38;5053016;28;45477;-70
2022/03/12 00:52:31;;;;;;;;;0.00;0.00;;;;;10.20;74.78;100328.94;5054543;28;45487;-70
2022/03/12 00:54:57;;;;;;;;;0.00;0.00;;;;;10.12;74.94;100319.13;5055119;28;45500;-69
2022/03/12 00:57:23;;;;;;;;;1.00;0.00;;;;;10.07;74.64;100317.28;5053878;28;45688;-69
2022/03/12 00:59:48;;;;;;;;;1.00;0.00;;;;;10.03;73.95;100320.63;5054609;28;45469;-69
2022/03/12 01:02:15;;;;;;;;;0.00;0.00;;;;;9.93;74.40;100298.59;5054637;28;45497;-69
2022/03/12 01:04:42;;;;;;;;;0.00;0.00;;;;;10.08;74.77;100326.84;5047351;28;45550;-69
2022/03/12 01:07:10;;;;;;;;;0.00;0.00;;;;;10.13;74.28;100341.81;5055801;28;45718;-70
2022/03/12 01:09:36;;;;;;;;;0.00;0.00;;;;;10.04;74.24;100328.47;5055986;28;45775;-70
2022/03/12 01:12:02;;;;;;;;;0.00;0.00;;;;;10.07;74.26;100339.03;5056706;28;45499;-70
2022/03/12 01:14:29;;;;;;;;;0.00;0.00;;;;;10.03;74.68;100333.69;5060151;28;45557;-70
2022/03/12 01:16:58;;;;;;;;;0.00;0.00;;;;;10.06;74.64;100338.97;5059724;28;45559;-70
2022/03/12 01:19:24;;;;;;;;;0.00;0.00;;;;;9.98;74.48;100337.88;5059217;28;46046;-70
2022/03/12 01:21:50;;;;;;;;;0.00;0.00;;;;;9.93;74.88;100335.13;5059329;28;45353;-69
2022/03/12 01:24:15;;;;;;;;;1.00;0.00;;;;;9.96;74.81;100335.22;5058331;28;45398;-70
2022/03/12 01:26:41;;;;;;;;;0.00;0.00;;;;;9.90;74.56;100333.31;5059963;28;45374;-70
2022/03/12 01:29:08;;;;;;;;;0.00;0.00;;;;;9.93;74.60;100336.00;5059944;28;45359;-70
2022/03/12 01:31:35;;;;;;;;;0.00;0.00;;;;;9.96;74.68;100343.03;5059659;28;45358;-70
2022/03/12 01:34:01;;;;;;;;;0.00;0.00;;;;;9.81;74.85;100316.50;5059966;28;45489;-70
2022/03/12 01:36:27;;;;;;;;;0.00;0.00;;;;;9.92;74.81;100333.34;5060058;28;45650;-70
2022/03/12 01:38:55;;;;;;;;;0.00;0.00;;;;;9.90;74.42;100333.31;5059483;28;45470;-70
2022/03/12 01:41:32;;;;;;;;;0.00;0.00;;;;;9.92;74.11;100335.97;5059393;28;45504;-70
2022/03/12 01:44:00;;;;;;;;;0.00;0.00;;;;;9.66;74.23;100291.72;5065184;28;45647;-70
2022/03/12 01:46:46;;;;;;;;;0.00;0.00;;;;;9.80;74.53;100335.59;5059999;28;45419;-70
2022/03/12 01:49:16;;;;;;;;;0.00;0.00;;;;;9.85;74.22;100339.25;5059128;28;45523;-70
2022/03/12 01:51:44;;;;;;;;;0.00;0.00;;;;;9.83;74.48;100331.38;5059175;28;45576;-69
2022/03/12 01:54:11;;;;;;;;;0.00;0.00;;;;;9.82;74.71;100336.53;5059399;28;45459;-70
2022/03/12 01:56:38;;;;;;;;;0.00;0.00;;;;;9.73;74.59;100311.94;5058555;28;45289;-70
2022/03/12 01:59:05;;;;;;;;;0.00;0.00;;;;;9.78;74.77;100319.03;5059420;28;45957;-70
2022/03/12 02:01:32;;;;;;;;;0.00;0.00;;;;;9.80;75.10;100323.44;5059323;28;45525;-69
2022/03/12 02:04:04;;;;;;;;;0.00;0.00;;;;;9.72;74.08;100307.56;5059438;28;45519;-69
2022/03/12 02:06:29;;;;;;;;;0.00;0.00;;;;;9.75;73.79;100307.66;5059044;28;45248;-70
2022/03/12 02:08:58;;;;;;;;;0.33;0.00;;;;;9.68;73.58;100294.38;5058934;28;45573;-70
2022/03/12 02:11:29;;;;;;;;;0.00;0.00;;;;;9.70;73.25;100290.97;5059212;28;45548;-70
2022/03/12 02:14:12;;;;;;;;;0.00;0.00;;;;;9.77;72.94;100315.53;5058972;28;45333;-70
2022/03/12 02:16:46;;;;;;;;;0.00;0.00;;;;;9.74;72.54;100305.88;5058519;28;45501;-70
2022/03/12 02:19:11;;;;;;;;;0.00;0.00;;;;;9.73;72.56;100300.66;5058616;28;45427;-70
2022/03/12 02:21:42;;;;;;;;;0.00;0.00;;;;;9.66;72.70;100286.50;5058835;28;45427;-69
2022/03/12 02:24:15;;;;;;;;;0.00;0.00;;;;;9.71;73.04;100294.50;5058939;28;45516;-70
2022/03/12 02:26:43;;;;;;;;;0.25;0.00;;;;;9.74;73.44;100300.66;5051188;28;46195;-70
2022/03/12 02:29:18;;;;;;;;;0.00;0.00;;;;;9.65;73.14;100284.75;5058574;28;45379;-69
2022/03/12 02:31:57;;;;;;;;;0.00;0.00;;;;;9.66;73.24;100276.09;5058297;28;45540;-70
2022/03/12 02:34:38;;;;;;;;;0.00;0.00;;;;;9.74;73.24;100292.84;5054366;28;45331;-70
2022/03/12 02:37:04;;;;;;;;;0.00;0.00;;;;;9.66;73.22;100277.81;5055234;28;45493;-71
2022/03/12 02:39:34;;;;;;;;;0.00;0.00;;;;;9.75;73.29;100296.34;5058139;28;45624;-69
2022/03/12 02:42:00;;;;;;;;;0.00;0.00;;;;;9.74;73.46;100294.56;5058368;28;45638;-70
2022/03/12 02:44:27;;;;;;;;;0.00;0.00;;;;;9.64;73.68;100277.75;5058536;28;45403;-70
2022/03/12 02:47:15;;;;;;;;;0.00;0.00;;;;;9.74;73.25;100286.75;5058834;28;45598;-70
2022/03/12 02:49:56;;;;;;;;;0.50;0.00;;;;;9.74;73.06;100292.84;5058076;28;45402;-70
2022/03/12 02:52:25;;;;;;;;;0.00;0.00;;;;;9.73;72.63;100285.88;5058381;28;45418;-69
2022/03/12 02:54:51;;;;;;;;;0.00;0.00;;;;;9.71;72.50;100286.66;5058578;28;45551;-70
2022/03/12 02:57:20;;;;;;;;;0.00;0.00;;;;;9.70;72.95;100283.16;5058648;28;46346;-69
2022/03/12 02:59:48;;;;;;;;;0.00;0.00;;;;;9.49;72.94;100246.00;5057928;28;45359;-70
2022/03/12 03:02:13;;;;;;;;;0.00;0.00;;;;;9.48;72.87;100234.69;5058329;28;45414;-83
2022/03/12 03:04:40;;;;;;;;;0.67;0.00;;;;;9.69;72.62;100270.09;5059030;28;45549;-70
2022/03/12 03:07:11;;;;;;;;;0.00;0.00;;;;;9.56;72.55;100259.28;5058925;28;45746;-70
2022/03/12 03:09:38;;;;;;;;;0.00;0.00;;;;;9.66;72.33;100276.09;5057328;28;45758;-70
2022/03/12 03:12:09;;;;;;;;;0.00;0.00;;;;;9.40;72.33;100227.50;5058848;28;45549;-70
2022/03/12 03:14:43;;;;;;;;;0.00;0.00;;;;;9.63;72.86;100268.19;5058875;28;45370;-70
2022/03/12 03:17:11;;;;;;;;;0.00;0.00;;;;;9.64;72.98;100269.94;5058831;28;45393;-70
2022/03/12 03:19:39;;;;;;;;;10.50;9.50;;;;;9.64;73.09;100274.28;5058853;28;45226;-70
2022/03/12 03:22:06;;;;;;;;;4.00;3.00;;;;;9.52;73.17;100252.22;5058319;28;45342;-69
2022/03/12 03:24:32;;;;;;;;;1.00;0.67;;;;;9.58;72.89;100263.66;5058496;28;45445;-70
2022/03/12 03:26:59;;;;;;;;;1.00;0.00;;;;;9.59;73.08;100260.19;5058331;28;45942;-70
2022/03/12 03:29:32;;;;;;;;;4.00;4.00;;;;;9.60;73.30;100269.81;5058658;28;45232;-70
2022/03/12 03:32:03;;;;;;;;;3.67;2.00;;;;;9.62;72.77;100270.75;5058601;28;45428;-70
2022/03/12 03:34:32;;;;;;;;;4.00;4.00;;;;;9.61;73.05;100268.97;5057595;28;45330;-70
2022/03/12 03:36:58;;;;;;;;;0.00;0.00;;;;;9.62;72.02;100265.53;5057424;28;46028;-70
2022/03/12 03:39:24;;;;;;;;;0.33;0.00;;;;;9.53;71.21;100259.19;5057330;28;45390;-70
2022/03/12 03:41:49;;;;;;;;;0.00;0.00;;;;;9.56;71.06;100261.00;5057284;28;45323;-69
2022/03/12 03:44:22;;;;;;;;;0.00;0.00;;;;;9.53;70.37;100256.59;5057851;28;45295;-70
2022/03/12 03:46:48;;;;;;;;;0.00;0.00;;;;;9.56;71.38;100259.28;5057115;28;45750;-70
2022/03/12 03:49:13;;;;;;;;;0.00;0.00;;;;;9.56;71.30;100261.00;5057054;28;45480;-70
2022/03/12 03:51:41;;;;;;;;;0.00;0.00;;;;;9.50;70.50;100246.06;5057239;28;45451;-69
2022/03/12 03:54:08;;;;;;;;;0.00;0.00;;;;;9.48;70.61;100246.88;5058021;28;45545;-70
2022/03/12 03:56:34;;;;;;;;;0.00;0.00;;;;;9.52;70.71;100251.34;5056484;28;45554;-70
2022/03/12 03:59:00;;;;;;;;;0.00;0.00;;;;;9.50;71.18;100251.28;5057711;28;45449;-70
2022/03/12 04:01:26;;;;;;;;;0.33;0.33;;;;;9.29;70.94;100220.25;5056164;28;45929;-70
2022/03/12 04:03:52;;;;;;;;;0.00;0.00;;;;;9.48;70.73;100257.28;5057735;28;45571;-69
2022/03/12 04:06:19;;;;;;;;;1.00;0.00;;;;;9.49;70.58;100253.84;5057691;28;45521;-70
2022/03/12 04:08:45;;;;;;;;;0.00;0.00;;;;;9.46;70.09;100241.59;5057172;28;45592;-70
2022/03/12 04:11:25;;;;;;;;;0.00;0.00;;;;;9.38;70.08;100237.00;5057813;28;45577;-70
2022/03/12 04:13:52;;;;;;;;;0.00;0.00;;;;;9.29;70.54;100220.25;5057020;28;45303;-70
2022/03/12 04:16:19;;;;;;;;;0.00;0.00;;;;;9.36;70.11;100227.41;5057611;28;45484;-70
2022/03/12 04:18:48;;;;;;;;;0.00;0.00;;;;;9.44;70.50;100245.00;5057259;28;45360;-70
2022/03/12 04:21:16;;;;;;;;;0.00;0.00;;;;;9.40;70.34;100235.31;5090047;27;45917;-70
2022/03/12 04:23:43;;;;;;;;;0.00;0.00;;;;;9.41;70.58;100237.09;5056073;28;45505;-70
2022/03/12 04:26:11;;;;;;;;;0.67;0.00;;;;;9.34;71.37;100223.88;5056596;28;45614;-70
2022/03/12 04:28:38;;;;;;;;;0.00;0.00;;;;;9.36;71.35;100237.84;5057550;28;45437;-70
2022/03/12 04:31:05;;;;;;;;;0.00;0.00;;;;;9.28;71.46;100234.13;5057307;28;45492;-70
2022/03/12 04:33:32;;;;;;;;;0.00;0.00;;;;;9.34;71.24;100241.25;5055587;28;45529;-69
2022/03/12 04:35:59;;;;;;;;;0.00;0.00;;;;;9.30;71.71;100237.66;5057073;28;45629;-70
2022/03/12 04:38:26;;;;;;;;;1.00;0.00;;;;;9.34;71.75;100236.03;5056032;28;45493;-70
2022/03/12 04:40:55;;;;;;;;;0.00;0.00;;;;;9.29;71.73;100229.78;5057291;28;45223;-69
2022/03/12 04:43:21;;;;;;;;;0.00;0.00;;;;;9.32;71.97;100235.09;5057439;28;45474;-70
2022/03/12 04:45:47;;;;;;;;;0.00;0.00;;;;;9.26;72.51;100242.72;5056916;28;46323;-70
2022/03/12 04:48:15;;;;;;;;;0.00;0.00;;;;;9.24;72.87;100237.47;5055086;28;45546;-69
2022/03/12 04:50:41;;;;;;;;;0.00;0.00;;;;;9.18;72.61;100236.41;5055954;28;45511;-70
2022/03/12 04:53:08;;;;;;;;;0.00;0.00;;;;;9.08;73.10;100224.81;5056358;28;45415;-70
2022/03/12 04:55:36;;;;;;;;;0.00;0.00;;;;;9.02;73.73;100233.31;5056125;28;46592;-70
2022/03/12 04:58:03;;;;;;;;;0.00;0.00;;;;;8.87;73.60;100215.50;5055182;28;45630;-69
2022/03/12 05:00:30;;;;;;;;;0.00;0.00;;;;;8.92;74.32;100226.06;5056025;28;45402;-70
2022/03/12 05:03:01;;;;;;;;;0.00;0.00;;;;;8.89;74.61;100223.34;5056030;28;45582;-70
2022/03/12 05:05:27;;;;;;;;;0.00;0.00;;;;;8.81;74.35;100212.69;5056117;28;46479;-83
2022/03/12 05:07:58;;;;;;;;;0.00;0.00;;;;;8.79;74.33;100205.66;5055850;28;45548;-70
2022/03/12 05:10:26;;;;;;;;;0.00;0.00;;;;;8.74;73.86;100201.19;5056559;28;45656;-69
2022/03/12 05:12:56;;;;;;;;;0.00;0.00;;;;;8.59;74.30;100187.69;5056062;28;45650;-83
2022/03/12 05:15:22;;;;;;;;;0.00;0.00;;;;;8.66;73.62;100202.66;5055242;28;45731;-69
2022/03/12 05:17:48;;;;;;;;;0.00;0.00;;;;;8.55;74.23;100196.22;5055575;28;45326;-69
2022/03/12 05:20:36;;;;;;;;;0.00;0.00;;;;;7.97;73.34;100106.69;5055741;28;45522;-84
2022/03/12 05:23:03;;;;;;;;;0.00;0.00;;;;;8.42;73.73;100187.16;5056421;28;45386;-84
2022/03/12 05:25:30;;;;;;;;;0.00;0.00;;;;;8.42;73.68;100201.88;5055200;28;46033;-69
2022/03/12 05:27:56;;;;;;;;;0.00;0.00;;;;;8.34;73.87;100201.59;5055336;28;45504;-69
2022/03/12 05:30:22;;;;;;;;;0.00;0.00;;;;;8.25;73.83;100196.06;5055190;28;45513;-70
2022/03/12 05:32:50;;;;;;;;;0.00;0.00;;;;;8.17;74.17;100188.88;5055285;28;45592;-72
2022/03/12 05:35:19;;;;;;;;;0.00;0.00;;;;;8.08;72.51;100188.59;5055359;28;46407;-69
2022/03/12 05:37:50;;;;;;;;;0.00;0.00;;;;;7.83;73.52;100176.44;5053403;28;45597;-69
2022/03/12 05:40:19;;;;;;;;;0.00;0.00;;;;;7.65;73.79;100161.06;5054260;28;45410;-69
2022/03/12 05:42:47;;;;;;;;;0.00;0.00;;;;;7.75;74.51;100189.16;5054972;28;45619;-69
2022/03/12 05:45:14;;;;;;;;;0.00;0.00;;;;;7.61;74.18;100168.72;5053109;28;45373;-69
2022/03/12 05:47:42;;;;;;;;;0.00;0.00;;;;;7.54;75.51;100170.19;5055566;28;45583;-69
2022/03/12 05:50:10;;;;;;;;;0.00;0.00;;;;;7.60;76.05;100188.63;5053870;28;45635;-70
2022/03/12 05:52:47;;;;;;;;;0.00;0.00;;;;;7.44;76.09;100171.59;5054325;28;45480;-69
2022/03/12 05:55:14;;;;;;;;;0.00;0.00;;;;;7.53;75.47;100195.31;5054437;28;45594;-69
2022/03/12 05:57:41;;;;;;;;;0.00;0.00;;;;;7.50;75.77;100195.22;5053769;28;45546;-69
2022/03/12 06:00:10;;;;;;;;;0.00;0.00;;;;;7.49;76.16;100190.81;5058578;28;45503;-69
2022/03/12 06:02:36;;;;;;;;;0.00;0.00;;;;;7.60;76.43;100198.13;5059065;28;45829;-69
2022/03/12 06:05:02;;;;;;;;;0.00;0.00;;;;;7.68;76.30;100197.59;5058052;28;46513;-69
2022/03/12 06:07:29;;;;;;;;;1.00;0.00;;;;;7.80;76.07;100201.44;5059368;28;45802;-70
2022/03/12 06:09:55;;;;;;;;;0.25;0.00;;;;;7.94;75.72;100211.53;5058997;28;45342;-70
2022/03/12 06:12:21;;;;;;;;;0.00;0.00;;;;;7.88;75.77;100200.91;5059233;28;45362;-69
2022/03/12 06:14:52;;;;;;;;;0.00;0.00;;;;;7.83;75.07;100180.75;5059445;28;45553;-69
2022/03/12 06:17:19;;;;;;;;;0.00;0.00;;;;;8.01;75.40;100207.41;5059845;28;45328;-70
2022/03/12 06:19:45;;;;;;;;;0.00;0.00;;;;;8.00;75.55;100207.34;5060006;28;45436;-69
2022/03/12 06:22:11;;;;;;;;;6.50;4.25;;;;;7.86;75.55;100180.84;5059793;28;45520;-70
2022/03/12 06:24:37;;;;;;;;;0.50;0.50;;;;;7.97;74.96;100205.53;5059363;28;45595;-69
2022/03/12 06:27:03;;;;;;;;;0.00;0.00;;;;;7.95;74.62;100204.59;5059523;28;45459;-70
2022/03/12 06:29:28;;;;;;;;;0.00;0.00;;;;;7.89;75.28;100200.06;5059737;28;45318;-70
2022/03/12 06:31:54;;;;;;;;;0.00;0.00;;;;;7.89;75.09;100191.38;5059831;28;45369;-69
2022/03/12 06:34:20;;;;;;;;;1.00;1.00;;;;;7.83;74.88;100191.16;5058488;28;45931;-70
2022/03/12 06:36:45;;;;;;;;;0.00;0.00;;;;;7.66;74.61;100170.66;5059395;28;45327;-69
2022/03/12 06:39:11;;;;;;;;;0.75;0.00;;;;;7.61;74.97;100189.53;5058961;28;45526;-70
2022/03/12 06:41:43;;;;;;;;;0.00;0.00;;;;;7.58;75.19;100195.50;5059278;28;45417;-69
2022/03/12 06:44:09;;;;;;;;;0.00;0.00;;;;;7.47;75.48;100186.41;5059177;28;46358;-70
2022/03/12 06:46:35;;;;;;;;;0.00;0.00;;;;;7.35;75.74;100182.53;5059193;28;45435;-69
2022/03/12 06:49:03;;;;;;;;;0.00;0.00;;;;;7.33;76.11;100183.31;5059243;28;45494;-69
2022/03/12 06:51:29;;;;;;;;;0.00;0.00;;;;;7.36;76.00;100199.00;5059232;28;45539;-70
2022/03/12 06:53:54;;;;;;;;;0.00;0.00;;;;;7.34;75.91;100204.16;5059068;28;46056;-69
2022/03/12 06:56:21;;;;;;;;;0.00;0.00;;;;;7.21;76.50;100172.47;5059292;28;45437;-69
2022/03/12 06:58:47;;;;;;;;;0.00;0.00;;;;;7.34;76.23;100192.84;5059310;28;45525;-70
2022/03/12 07:01:12;;;;;;;;;0.00;0.00;;;;;7.32;75.66;100178.91;5059102;28;45410;-69
2022/03/12 07:03:38;;;;;;;;;1.00;0.75;;;;;7.29;75.61;100177.09;5058402;28;46175;-69
2022/03/12 07:06:04;;;;;;;;;0.00;0.00;;;;;7.27;74.89;100175.28;5057652;28;45365;-70
2022/03/12 07:08:30;;;;;;;;;0.00;0.00;;;;;7.24;74.12;100165.69;5057999;28;45377;-70
2022/03/12 07:10:56;;;;;;;;;0.00;0.00;;;;;7.14;74.29;100137.56;5056957;28;45440;-68
2022/03/12 07:13:22;;;;;;;;;0.00;0.00;;;;;7.40;73.44;100172.31;5056900;28;45495;-69
2022/03/12 07:15:49;;;;;;;;;0.00;0.00;;;;;7.46;73.09;100177.75;5057619;28;45461;-69
2022/03/12 07:18:16;;;;;;;;;0.00;0.00;;;;;7.51;73.11;100168.38;5057911;28;45433;-69
2022/03/12 07:20:42;;;;;;;;;0.00;0.00;;;;;7.53;72.23;100163.25;5057620;28;45592;-69
2022/03/12 07:23:07;;;;;;;;;0.00;0.00;;;;;7.59;72.10;100163.47;5056520;28;45798;-69
2022/03/12 07:25:34;;;;;;;;;1.00;0.00;;;;;7.40;72.11;100132.44;5056639;28;45445;-68
2022/03/12 07:28:00;;;;;;;;;2.00;1.00;;;;;7.60;72.62;100170.44;5057511;28;45268;-70
2022/03/12 07:30:26;;;;;;;;;1.00;1.00;;;;;7.64;72.99;100169.72;5057865;28;45422;-69
2022/03/12 07:32:51;;;;;;;;;1.50;1.50;;;;;8.34;72.45;100166.03;5058150;28;45941;-69
2022/03/12 07:35:18;;;;;;;;;0.00;0.00;;;;;11.69;64.95;100173.94;5057025;28;45466;-79
2022/03/12 07:37:46;;;;;;;;;2.00;2.00;;;;;15.47;52.88;100155.66;5057759;28;45325;-84
2022/03/12 07:40:13;;;;;;;;;4.25;4.25;;;;;18.28;47.76;100151.63;5057940;28;45306;-70
2022/03/12 07:42:39;;;;;;;;;0.00;0.00;;;;;20.45;44.44;100155.22;5057407;28;46056;-73
2022/03/12 07:45:07;;;;;;;;;1.00;0.00;;;;;21.85;38.44;100146.31;5057551;28;45359;-70
2022/03/12 07:47:34;;;;;;;;;0.00;0.00;;;;;22.95;35.37;100126.72;5057198;28;45299;-84
2022/03/12 07:50:00;;;;;;;;;0.00;0.00;;;;;24.16;33.80;100153.41;5057612;28;45493;-70
2022/03/12 07:52:25;;;;;;;;;0.00;0.00;;;;;25.18;31.81;100157.00;5056887;28;46464;-70
2022/03/12 07:54:51;;;;;;;;;0.00;0.00;;;;;26.07;29.49;100173.34;5057549;28;45575;-70
2022/03/12 07:57:17;;;;;;;;;0.00;0.00;;;;;26.93;28.87;100159.91;5057305;28;45551;-70
2022/03/12 07:59:44;;;;;;;;;1.00;0.00;;;;;27.78;28.39;100166.81;5056927;28;45456;-70
2022/03/12 08:02:10;;;;;;;;;0.00;0.00;;;;;28.62;26.91;100160.97;5057671;28;46178;-70
2022/03/12 08:04:36;;;;;;;;;0.00;0.00;;;;;29.29;26.53;100149.38;5056849;28;45310;-77
2022/03/12 08:07:03;;;;;;;;;2.33;0.67;;;;;30.13;24.73;100195.00;5056829;28;45442;-70
2022/03/12 08:09:29;;;;;;;;;3.33;3.33;;;;;30.69;23.71;100172.94;5057114;28;45368;-71
2022/03/12 08:11:57;;;;;;;;;17.00;13.00;;;;;31.08;23.36;100167.00;5057131;28;46818;-77
2022/03/12 08:14:23;;;;;;;;;4.00;3.00;;;;;31.73;22.88;100168.34;5050340;28;45414;-72
2022/03/12 08:16:50;;;;;;;;;0.00;0.00;;;;;31.97;21.83;100178.53;5056219;28;45628;-71
2022/03/12 08:19:17;;;;;;;;;3.33;3.00;;;;;32.08;22.39;100176.03;5055946;28;45479;-72
2022/03/12 08:21:44;;;;;;;;;0.00;0.00;;;;;32.24;20.95;100170.47;5055961;28;45969;-69
2022/03/12 08:24:10;;;;;;;;;0.00;0.00;;;;;32.48;21.59;100192.31;5055749;28;45398;-70
2022/03/12 08:26:41;;;;;;;;;0.00;0.00;;;;;32.87;19.65;100183.34;5055653;28;45398;-70
2022/03/12 08:29:09;;;;;;;;;0.00;0.00;;;;;33.04;20.20;100190.28;5056004;28;45459;-72
2022/03/12 08:31:35;;;;;;;;;0.00;0.00;;;;;33.35;20.29;100162.94;5052871;28;45552;-71
2022/03/12 08:34:01;;;;;;;;;0.00;0.00;;;;;33.85;19.84;100175.53;5054435;28;45711;-70
2022/03/12 08:36:27;;;;;;;;;0.00;0.00;;;;;33.97;19.33;100168.34;5055349;28;45505;-71
2022/03/12 08:38:53;;;;;;;;;0.00;0.00;;;;;34.31;18.84;100140.59;5055496;28;45652;-70
2022/03/12 08:41:21;;;;;;;;;0.00;0.00;;;;;34.80;18.52;100164.00;5053080;28;46611;-73
2022/03/12 08:43:48;;;;;;;;;2.33;2.33;;;;;35.03;22.34;100173.03;5055585;28;45422;-71
2022/03/12 08:46:13;;;;;;;;;0.00;0.00;;;;;35.03;17.39;100173.03;5056154;28;45648;-71
2022/03/12 08:48:40;;;;;;;;;0.00;0.00;;;;;35.31;18.33;100171.72;5055325;28;45534;-71
2022/03/12 08:51:06;;;;;;;;;0.00;0.00;;;;;35.42;17.92;100160.03;5055048;28;46345;-70
2022/03/12 08:53:33;;;;;;;;;2.33;1.67;;;;;35.60;17.83;100163.09;5056396;28;45426;-70
2022/03/12 08:56:00;;;;;;;;;2.33;2.00;;;;;35.77;17.33;100172.63;5053697;28;45424;-71
2022/03/12 08:58:26;;;;;;;;;6.00;6.00;;;;;36.01;17.47;100173.34;5056579;28;45402;-71
2022/03/12 09:00:53;;;;;;;;;9.33;8.00;;;;;36.30;16.51;100171.91;5056486;28;45395;-71
2022/03/12 09:03:23;;;;;;;;;6.67;6.00;;;;;36.73;17.64;100179.16;5056126;28;45422;-75
2022/03/12 09:05:50;;;;;;;;;3.67;3.67;;;;;36.81;16.46;100163.06;5055135;28;45569;-73
2022/03/12 09:08:17;;;;;;;;;1.67;0.67;;;;;37.01;15.73;100172.22;5056072;28;45441;-74
2022/03/12 09:10:43;;;;;;;;;8.00;8.00;;;;;37.03;16.71;100173.81;5054348;28;46609;-72
2022/03/12 09:13:12;;;;;;;;;16.00;14.67;;;;;37.07;15.80;100165.34;5056460;28;45448;-73
2022/03/12 09:15:38;;;;;;;;;23.67;22.00;;;;;37.21;15.82;100159.59;5056775;28;45548;-72
2022/03/12 09:18:03;;;;;;;;;12.00;11.67;;;;;37.16;15.17;100148.25;5056804;28;45524;-72
2022/03/12 09:20:29;;;;;;;;;4.33;4.33;;;;;37.25;15.58;100147.44;5055277;28;45397;-73
2022/03/12 09:22:55;;;;;;;;;3.00;2.67;;;;;37.34;15.87;100154.78;5056651;28;45419;-71
2022/03/12 09:25:21;;;;;;;;;0.67;0.00;;;;;37.19;15.98;100137.94;5056895;28;45284;-71
2022/03/12 09:27:46;;;;;;;;;0.00;0.00;;;;;37.38;16.10;100144.47;5056827;28;45432;-74
2022/03/12 09:30:13;;;;;;;;;9.00;8.33;;;;;37.55;15.76;100145.69;5054667;28;47045;-72
2022/03/12 09:32:39;;;;;;;;;1.00;1.00;;;;;37.55;15.38;100145.69;5056765;28;45465;-74
2022/03/12 09:35:06;;;;;;;;;1.00;1.00;;;;;37.61;15.54;100135.13;5059948;28;45481;-72
2022/03/12 09:37:32;;;;;;;;;0.00;0.00;;;;;37.60;15.30;100138.00;5059668;28;45401;-70
2022/03/12 09:39:59;;;;;;;;;0.00;0.00;;;;;37.48;14.50;100128.16;5060000;28;46024;-70
2022/03/12 09:42:28;;;;;;;;;3.33;3.33;;;;;37.39;15.14;100119.81;5060370;28;45480;-70
2022/03/12 09:44:54;;;;;;;;;0.00;0.00;;;;;37.38;15.67;100119.94;5059697;28;45526;-70
2022/03/12 09:47:19;;;;;;;;;6.33;6.00;;;;;37.29;15.80;100112.63;5058673;28;45565;-71
2022/03/12 09:49:45;;;;;;;;;1.67;1.67;;;;;37.20;15.13;100119.75;5059272;28;45509;-71
2022/03/12 09:52:11;;;;;;;;;0.67;0.67;;;;;37.21;14.69;100107.84;5059715;28;45521;-71
2022/03/12 09:54:38;;;;;;;;;0.00;0.00;;;;;37.24;14.53;100107.56;5059583;28;45484;-76
2022/03/12 09:57:04;;;;;;;;;1.67;1.33;;;;;37.19;14.78;100109.84;5059468;28;45350;-71
2022/03/12 09:59:30;;;;;;;;;2.00;1.67;;;;;37.37;14.91;100110.06;5059156;28;46137;-71
2022/03/12 10:01:56;;;;;;;;;0.67;0.67;;;;;37.27;15.19;100081.94;5059204;28;45467;-73
2022/03/12 10:04:22;;;;;;;;;0.00;0.00;;;;;37.18;15.22;100083.59;5058695;28;45434;-71
2022/03/12 10:06:48;;;;;;;;;0.00;0.00;;;;;37.09;15.61;100084.38;5058947;28;45476;-71
2022/03/12 10:09:14;;;;;;;;;0.00;0.00;;;;;37.05;15.91;100088.38;5057090;28;45565;-71
2022/03/12 10:11:44;;;;;;;;;4.33;4.00;;;;;36.76;15.57;100080.94;5056780;28;45591;-70
2022/03/12 10:14:10;;;;;;;;;0.00;0.00;;;;;36.58;16.78;100072.50;5058640;28;45515;-70
2022/03/12 10:16:35;;;;;;;;;1.67;1.67;;;;;36.44;15.56;100069.09;5058722;28;45302;-70
2022/03/12 10:19:02;;;;;;;;;0.00;0.00;;;;;36.34;16.50;100064.59;5059038;28;46227;-70
2022/03/12 10:21:28;;;;;;;;;0.00;0.00;;;;;36.29;16.05;100069.56;5057450;28;45338;-70
2022/03/12 10:23:53;;;;;;;;;0.00;0.00;;;;;36.27;16.06;100074.25;5058167;28;45437;-71
2022/03/12 10:26:19;;;;;;;;;0.00;0.00;;;;;35.89;16.61;100049.28;5058295;28;45515;-72
2022/03/12 10:28:45;;;;;;;;;0.00;0.00;;;;;35.64;17.08;100061.34;5058324;28;46130;-72
2022/03/12 10:31:12;;;;;;;;;0.00;0.00;;;;;35.54;17.19;100061.25;5056973;28;45358;-71
2022/03/12 10:33:39;;;;;;;;;1.67;1.67;;;;;35.66;16.55;100064.81;5058417;28;45367;-76
2022/03/12 10:36:12;;;;;;;;;0.00;0.00;;;;;35.32;16.44;100045.00;5058707;28;45360;-72
2022/03/12 10:38:44;;;;;;;;;0.00;0.00;;;;;34.94;17.74;100049.78;5055715;28;45661;-70
2022/03/12 10:41:11;;;;;;;;;0.00;0.00;;;;;34.91;18.02;100051.88;5057892;28;45519;-71
2022/03/12 10:43:54;;;;;;;;;8.00;8.00;;;;;34.73;17.66;100046.91;5057448;28;45528;-70
2022/03/12 10:46:20;;;;;;;;;0.00;0.00;;;;;34.37;16.57;100048.78;5041390;27;45936;-71
2022/03/12 10:49:07;;;;;;;;;0.00;0.00;;;;;34.10;17.37;100057.16;5067218;27;45531;-72
2022/03/12 10:51:36;;;;;;;;;0.00;0.00;;;;;33.75;17.83;100043.59;5067632;28;45828;-72
2022/03/12 10:54:07;;;;;;;;;0.00;0.00;;;;;33.52;17.77;100037.16;5058293;28;45402;-71
2022/03/12 10:56:54;;;;;;;;;0.00;0.00;;;;;33.27;18.68;100029.00;5058470;28;45381;-71
2022/03/12 10:59:25;;;;;;;;;0.00;0.00;;;;;32.94;18.90;100005.19;5057584;28;45315;-71
2022/03/12 11:01:56;;;;;;;;;0.00;0.00;;;;;32.76;19.31;100007.41;5066174;28;45408;-73
2022/03/12 11:04:29;;;;;;;;;0.00;0.00;;;;;32.57;18.99;100010.56;5050312;27;45495;-78
2022/03/12 11:06:58;;;;;;;;;0.00;0.00;;;;;31.87;20.15;100003.56;5057006;28;45437;-71
2022/03/12 11:09:36;;;;;;;;;0.00;0.00;;;;;31.28;20.09;99986.78;5067344;28;46336;-77
2022/03/12 11:12:04;;;;;;;;;0.00;0.00;;;;;31.01;20.28;99974.09;5068103;27;45471;-71
2022/03/12 11:14:31;;;;;;;;;0.00;0.00;;;;;30.84;20.47;99979.66;5066022;28;45511;-71
2022/03/12 11:16:58;;;;;;;;;0.00;0.00;;;;;30.50;21.56;99992.56;5068038;28;45472;-72
2022/03/12 11:19:45;;;;;;;;;0.00;0.00;;;;;29.81;21.60;99983.25;5053323;28;45504;-71
2022/03/12 11:22:14;;;;;;;;;0.00;0.00;;;;;28.91;22.84;99982.03;5056620;28;45790;-71
2022/03/12 11:24:47;;;;;;;;;0.00;0.00;;;;;28.21;24.21;99949.88;5042289;28;45581;-71
2022/03/12 11:27:18;;;;;;;;;0.00;0.00;;;;;28.25;23.50;99970.28;5057455;28;45431;-71
2022/03/12 11:29:57;;;;;;;;;0.00;0.00;;;;;27.89;24.59;99944.38;5056461;28;46713;-71
2022/03/12 11:32:22;;;;;;;;;0.00;0.00;;;;;27.15;25.86;99957.84;5056544;28;45263;-71